Time;durP1;ratioP1;P1;durP2;ratioP2;P2;SDS_P1;SDS_P2;PMS_P1;PMS_P2;Temp;Humidity;BMP_temperature;BMP_pressure;BME280_temperature;BME280_humidity;BME280_pressure;Samples;Min_cycle;Max_cycle;Signal;HPM_P1;HPM_P2
2021/03/27 07:02:27;;;;;;;;;;;;;;;;;;5286414;23;1611;-68
2021/03/27 07:04:58;;;;;;;;;;;;;;;;;;4961210;28;799;-67
2021/03/27 07:07:27;;;;;;;;;;;;;;;;;;4957458;29;1232;-66
2021/03/27 07:10:30;;;;;;;;;;;;;;;;;;4957167;29;1431;-67
2021/03/27 07:13:11;;;;;;;;;;;;;;;;;;4937241;29;1295;-67
2021/03/27 07:15:42;;;;;;;;;;;;;;;;;;4938102;29;1662;-68
2021/03/27 07:18:17;;;;;;;;;;;;;;;;;;4939189;29;865;-67
2021/03/27 07:20:55;;;;;;;;;;;;;;;;;;4937854;29;1354;-68
2021/03/27 07:23:39;;;;;;;;;;;;;;;;;;4937870;29;852;-68
2021/03/27 07:26:11;;;;;;;;;;;;;;;;;;4937774;29;1895;-67
2021/03/27 07:28:43;;;;;;;;;;;;;;;;;;4937572;29;1327;-67
2021/03/27 07:31:35;;;;;;;;;;;;;;;;;;4938990;29;1341;-68
2021/03/27 07:34:19;;;;;;;;;;;;;;;;;;4934452;29;1391;-67
2021/03/27 07:37:03;;;;;;;;;;;;;;;;;;4937933;29;1508;-67
2021/03/27 07:39:28;;;;;;;;;;;;;;;;;;4937443;29;1405;-67
2021/03/27 07:42:12;;;;;;;;;;;;;;;;;;4937735;29;1355;-67
2021/03/27 07:44:45;;;;;;;;;;;;;;;;;;4937253;29;1372;-67
2021/03/27 07:47:29;;;;;;;;;;;;;;;;;;4937354;29;1961;-67
2021/03/27 07:50:07;;;;;;;;;;;;;;;;;;4938287;29;976;-67
2021/03/27 07:52:32;;;;;;;;;;;;;;;;;;4938474;29;1330;-67
2021/03/27 07:54:57;;;;;;;;;;;;;;;;;;4938282;29;925;-67
2021/03/27 07:57:26;;;;;;;;;;;;;;;;;;4937304;29;1201;-68
2021/03/27 07:59:59;;;;;;;;;;;;;;;;;;4938367;29;806;-68
2021/03/27 08:03:02;;;;;;;;;;;;;;;;;;4936458;29;1363;-67
2021/03/27 08:06:03;;;;;;;;;;;;;;;;;;4937588;29;1880;-69
2021/03/27 08:08:43;;;;;;;;;;;;;;;;;;4897580;29;1103;-69
2021/03/27 08:11:19;;;;;;;;;;;;;;;;;;4932640;29;1275;-68
2021/03/27 08:14:00;;;;;;;;;;;;;;;;;;4937229;29;901;-69
2021/03/27 08:16:34;;;;;;;;;;;;;;;;;;4937398;29;897;-69
2021/03/27 08:19:19;;;;;;;;;;;;;;;;;;4937587;29;791;-68
2021/03/27 08:21:44;;;;;;;;;;;;;;;;;;4935888;29;1303;-68
2021/03/27 08:24:28;;;;;;;;;;;;;;;;;;4935798;29;1320;-68
2021/03/27 08:27:02;;;;;;;;;;;;;;;;;;4936984;29;1952;-68
2021/03/27 08:29:46;;;;;;;;;;;;;;;;;;4937320;29;885;-68
2021/03/27 08:32:29;;;;;;;;;;;;;;;;;;4937106;29;1255;-68
2021/03/27 08:35:06;;;;;;;;;;;;;;;;;;4936618;29;972;-68
2021/03/27 08:37:32;;;;;;;;;;;;;;;;;;4936068;29;1337;-69
2021/03/27 08:40:09;;;;;;;;;;;;;;;;;;4936771;29;869;-69
2021/03/27 08:42:52;;;;;;;;;;;;;;;;;;4936889;29;1339;-68
2021/03/27 08:45:36;;;;;;;;;;;;;;;;;;4936708;29;1891;-69
2021/03/27 08:48:04;;;;;;;;;;;;;;;;;;4936922;29;985;-69
2021/03/27 08:50:48;;;;;;;;;;;;;;;;;;4936795;29;1311;-68
2021/03/27 08:53:19;;;;;;;;;;;;;;;;;;4936528;29;925;-68
2021/03/27 08:56:02;;;;;;;;;;;;;;;;;;4937064;29;789;-68
2021/03/27 08:58:42;;;;;;;;;;;;;;;;;;4936942;29;976;-68
2021/03/27 09:01:13;;;;;;;;;;;;;;;;;;4915617;29;620815;-68
2021/03/27 09:03:57;;;;;;;;;;;;;;;;;;4937413;29;1286;-68
2021/03/27 09:06:41;;;;;;;;;;;;;;;;;;4937377;29;1911;-67
2021/03/27 09:09:07;;;;;;;;;;;;;;;;;;4937177;29;829;-68
2021/03/27 09:12:07;;;;;;;;;;;;;;;;;;4937257;29;1418;-68
2021/03/27 09:14:50;;;;;;;;;;;;;;;;;;4881461;29;1313;-68
2021/03/27 09:17:32;;;;;;;;;;;;;;;;;;4933637;29;1071;-68
2021/03/27 09:20:09;;;;;;;;;;;;;;;;;;4936057;29;1417;-68
2021/03/27 09:22:53;;;;;;;;;;;;;;;;;;4935777;29;1378;-69
2021/03/27 09:25:31;;;;;;;;;;;;;;;;;;4936976;29;1900;-69
2021/03/27 09:28:22;;;;;;;;;;;;;;;;;;4937173;29;913;-68
2021/03/27 09:30:56;;;;;;;;;;;;;;;;;;4921690;29;1392;-69
2021/03/27 09:33:25;;;;;;;;;;;;;;;;;;4937018;29;882;-68
2021/03/27 09:36:06;;;;;;;;;;;;;;;;;;4935866;29;1297;-68
2021/03/27 09:38:42;;;;;;;;;;;;;;;;;;4951764;29;1327;-69
2021/03/27 09:41:07;;;;;;;;;;;;;;;;;;4937203;29;1307;-68
2021/03/27 09:43:32;;;;;;;;;;;;;;;;;;4936667;29;926;-69
2021/03/27 09:45:57;;;;;;;;;;;;;;;;;;4937438;29;1918;-69
2021/03/27 09:48:28;;;;;;;;;;;;;;;;;;4940837;29;968;-68
2021/03/27 09:51:00;;;;;;;;;;;;;;;;;;4939511;29;1299;-67
2021/03/27 09:53:28;;;;;;;;;;;;;;;;;;4940459;29;934;-69
2021/03/27 09:56:08;;;;;;;;;;;;;;;;;;4940997;29;912;-69
2021/03/27 09:58:42;;;;;;;;;;;;;;;;;;4941689;29;830;-68
2021/03/27 10:01:23;;;;;;;;;;;;;;;;;;4940828;29;1345;-68
2021/03/27 10:03:53;;;;;;;;;;;;;;;;;;4940393;29;854;-68
2021/03/27 10:06:30;;;;;;;;;;;;;;;;;;4940298;29;1903;-70
2021/03/27 10:09:14;;;;;;;;;;;;;;;;;;4939127;29;1332;-68
2021/03/27 10:11:40;;;;;;;;;;;;;;;;;;4940498;29;1288;-69
2021/03/27 10:14:09;;;;;;;;;;;;;;;;;;4939996;29;877;-68
2021/03/27 10:16:50;;;;;;;;;;;;;;;;;;4940312;29;1000;-68
2021/03/27 10:19:18;;;;;;;;;;;;;;;;;;4940513;29;992;-68
2021/03/27 10:21:58;;;;;;;;;;;;;;;;;;4938921;29;1303;-68
2021/03/27 10:24:29;;;;;;;;;;;;;;;;;;4939709;29;916;-69
2021/03/27 10:27:08;;;;;;;;;;;;;;;;;;4939992;29;1903;-69
2021/03/27 10:32:20;;;;;;;;;;;;;;;;;;4940053;29;1331;-69
2021/03/27 10:34:48;;;;;;;;;;;;;;;;;;4938850;29;1209;-68
2021/03/27 10:37:21;;;;;;;;;;;;;;;;;;4940103;29;980;-68
2021/03/27 10:40:12;;;;;;;;;;;;;;;;;;4938416;29;802;-69
2021/03/27 10:42:38;;;;;;;;;;;;;;;;;;4924603;29;1348;-69
2021/03/27 10:45:15;;;;;;;;;;;;;;;;;;4939595;29;936;-68
2021/03/27 10:48:00;;;;;;;;;;;;;;;;;;4939609;29;844;-68
2021/03/27 10:50:28;;;;;;;;;;;;;;;;;;4932753;29;1650;-66
2021/03/27 10:53:00;;;;;;;;;;;;;;;;;;4938643;29;1157;-67
2021/03/27 10:55:31;;;;;;;;;;;;;;;;;;4939104;29;837;-69
2021/03/27 10:58:13;;;;;;;;;;;;;;;;;;4938132;29;1259;-69
2021/03/27 11:00:54;;;;;;;;;;;;;;;;;;4938013;29;1352;-69
2021/03/27 11:03:49;;;;;;;;;;;;;;;;;;4938043;29;1379;-69
2021/03/27 11:06:44;;;;;;;;;;;;;;;;;;4939346;29;1900;-68
2021/03/27 11:09:28;;;;;;;;;;;;;;;;;;4938031;29;1191;-68
2021/03/27 11:11:53;;;;;;;;;;;;;;;;;;4937442;29;1343;-69
2021/03/27 11:14:39;;;;;;;;;;;;;;;;;;4937712;29;1451;-69
2021/03/27 11:17:16;;;;;;;;;;;;;;;;;;4938118;29;1262;-69
2021/03/27 11:19:51;;;;;;;;;;;;;;;;;;4939057;29;940;-69
2021/03/27 11:22:28;;;;;;;;;;;;;;;;;;4938777;29;1393;-69
2021/03/27 11:24:56;;;;;;;;;;;;;;;;;;4938690;29;931;-68
2021/03/27 11:27:22;;;;;;;;;;;;;;;;;;4938824;29;1898;-68
2021/03/27 11:29:47;;;;;;;;;;;;;;;;;;4937896;29;1245;-68
2021/03/27 11:32:15;;;;;;;;;;;;;;;;;;4938380;29;1385;-68
2021/03/27 11:34:58;;;;;;;;;;;;;;;;;;4938482;29;1123;-68
2021/03/27 11:37:36;;;;;;;;;;;;;;;;;;4938580;29;972;-68
2021/03/27 11:40:01;;;;;;;;;;;;;;;;;;4937403;29;1424;-68
2021/03/27 11:42:32;;;;;;;;;;;;;;;;;;4938705;29;1295;-68
2021/03/27 11:45:24;;;;;;;;;;;;;;;;;;4937086;29;1406;-67
2021/03/27 11:47:59;;;;;;;;;;;;;;;;;;4938493;29;1793;-68
2021/03/27 11:50:43;;;;;;;;;;;;;;;;;;4953691;28;1169;-68
2021/03/27 11:53:21;;;;;;;;;;;;;;;;;;4936284;29;1292;-68
2021/03/27 11:55:49;;;;;;;;;;;;;;;;;;4938123;29;1043;-69
2021/03/27 11:58:14;;;;;;;;;;;;;;;;;;4937929;29;1203;-68
2021/03/27 12:01:00;;;;;;;;;;;;;;;;;;4938757;29;1323;-67
2021/03/27 12:03:45;;;;;;;;;;;;;;;;;;4938218;29;1358;-68
2021/03/27 12:06:11;;;;;;;;;;;;;;;;;;4938238;29;1937;-68
2021/03/27 12:08:49;;;;;;;;;;;;;;;;;;4936386;29;1352;-69
2021/03/27 12:11:22;;;;;;;;;;;;;;;;;;4937071;29;1350;-68
2021/03/27 12:13:57;;;;;;;;;;;;;;;;;;4938168;29;826;-68
2021/03/27 12:16:23;;;;;;;;;;;;;;;;;;4938310;29;1015;-70
2021/03/27 12:18:52;;;;;;;;;;;;;;;;;;4941077;29;1226;-68
2021/03/27 12:21:30;;;;;;;;;;;;;;;;;;4955951;28;1522;-67
2021/03/27 12:24:14;;;;;;;;;;;;;;;;;;4955758;28;1048;-66
2021/03/27 12:26:47;;;;;;;;;;;;;;;;;;4937638;28;1962;-68
2021/03/27 12:29:17;;;;;;;;;;;;;;;;;;4937756;29;981;-67
2021/03/27 12:32:01;;;;;;;;;;;;;;;;;;4937698;29;1437;-68
2021/03/27 12:34:34;;;;;;;;;;;;;;;;;;4936759;29;1406;-67
2021/03/27 12:37:06;;;;;;;;;;;;;;;;;;4937534;29;1130;-67
2021/03/27 12:39:49;;;;;;;;;;;;;;;;;;4937352;29;893;-67
2021/03/27 12:42:17;;;;;;;;;;;;;;;;;;4936234;29;1430;-68
2021/03/27 12:44:45;;;;;;;;;;;;;;;;;;4937434;29;932;-67
2021/03/27 12:47:23;;;;;;;;;;;;;;;;;;4937501;29;1894;-67
2021/03/27 12:49:53;;;;;;;;;;;;;;;;;;4936251;29;1352;-67
2021/03/27 12:52:38;;;;;;;;;;;;;;;;;;4937637;29;1402;-67
2021/03/27 12:55:22;;;;;;;;;;;;;;;;;;4937312;29;957;-67
2021/03/27 12:58:06;;;;;;;;;;;;;;;;;;4937377;29;1012;-67
2021/03/27 13:00:43;;;;;;;;;;;;;;;;;;4936156;29;1386;-69
2021/03/27 13:03:27;;;;;;;;;;;;;;;;;;4936330;29;1122;-68
2021/03/27 13:06:02;;;;;;;;;;;;;;;;;;4936079;29;1968;-67
2021/03/27 13:08:27;;;;;;;;;;;;;;;;;;4937421;29;942;-67
2021/03/27 13:11:11;;;;;;;;;;;;;;;;;;4937275;29;1323;-66
2021/03/27 13:13:55;;;;;;;;;;;;;;;;;;4936288;29;964;-66
2021/03/27 13:16:26;;;;;;;;;;;;;;;;;;4936219;29;1194;-66
2021/03/27 13:18:58;;;;;;;;;;;;;;;;;;4935843;29;1233;-68
2021/03/27 13:21:30;;;;;;;;;;;;;;;;;;4938348;29;1455;-68
2021/03/27 13:24:04;;;;;;;;;;;;;;;;;;4941056;29;945;-68
2021/03/27 13:26:31;;;;;;;;;;;;;;;;;;4941268;29;1898;-68
2021/03/27 13:29:01;;;;;;;;;;;;;;;;;;4940050;29;1440;-68
2021/03/27 13:31:34;;;;;;;;;;;;;;;;;;4940847;29;1268;-67
2021/03/27 13:34:05;;;;;;;;;;;;;;;;;;4940900;29;913;-67
2021/03/27 13:36:32;;;;;;;;;;;;;;;;;;4941018;29;1052;-66
2021/03/27 13:39:01;;;;;;;;;;;;;;;;;;4940829;29;885;-68
2021/03/27 13:41:38;;;;;;;;;;;;;;;;;;4940888;29;1291;-67
2021/03/27 13:44:12;;;;;;;;;;;;;;;;;;4940751;29;976;-68
2021/03/27 13:46:43;;;;;;;;;;;;;;;;;;4940776;29;1898;-67
2021/03/27 13:49:10;;;;;;;;;;;;;;;;;;4940785;29;889;-67
2021/03/27 13:51:35;;;;;;;;;;;;;;;;;;4940452;29;1316;-67
2021/03/27 13:54:15;;;;;;;;;;;;;;;;;;4939258;29;1335;-66
2021/03/27 13:56:45;;;;;;;;;;;;;;;;;;4940806;29;917;-67
2021/03/27 13:59:16;;;;;;;;;;;;;;;;;;4940558;29;913;-66
2021/03/27 14:01:50;;;;;;;;;;;;;;;;;;4940692;29;1295;-68
2021/03/27 14:04:30;;;;;;;;;;;;;;;;;;4939043;29;1314;-67
2021/03/27 14:06:59;;;;;;;;;;;;;;;;;;4940308;29;1902;-67
2021/03/27 14:09:30;;;;;;;;;;;;;;;;;;4940459;29;889;-66
2021/03/27 14:11:58;;;;;;;;;;;;;;;;;;4939109;29;1437;-67
2021/03/27 14:14:28;;;;;;;;;;;;;;;;;;4940216;29;1048;-68
2021/03/27 14:17:05;;;;;;;;;;;;;;;;;;4940296;29;997;-68
2021/03/27 14:19:44;;;;;;;;;;;;;;;;;;4938854;29;1322;-67
2021/03/27 14:22:09;;;;;;;;;;;;;;;;;;4940036;29;1275;-68
2021/03/27 14:24:40;;;;;;;;;;;;;;;;;;4939031;29;1346;-68
2021/03/27 14:27:14;;;;;;;;;;;;;;;;;;4940030;29;1898;-68
2021/03/27 14:29:49;;;;;;;;;;;;;;;;;;4938837;29;1387;-67
2021/03/27 14:32:23;;;;;;;;;;;;;;;;;;4939439;29;1284;-67
2021/03/27 14:35:01;;;;;;;;;;;;;;;;;;4938712;29;1445;-69
2021/03/27 14:37:45;;;;;;;;;;;;;;;;;;4939974;29;884;-68
2021/03/27 14:40:26;;;;;;;;;;;;;;;;;;4939943;29;973;-68
2021/03/27 14:43:06;;;;;;;;;;;;;;;;;;4940011;29;900;-68
2021/03/27 14:45:40;;;;;;;;;;;;;;;;;;4938556;29;1894;-67
2021/03/27 14:48:17;;;;;;;;;;;;;;;;;;4939777;29;795;-67
2021/03/27 14:50:46;;;;;;;;;;;;;;;;;;4938440;29;1361;-68
2021/03/27 14:53:14;;;;;;;;;;;;;;;;;;4939494;29;910;-68
2021/03/27 14:56:15;;;;;;;;;;;;;;;;;;4938510;29;1396;-68
2021/03/27 14:58:44;;;;;;;;;;;;;;;;;;4918465;29;1220;-68
2021/03/27 15:01:11;;;;;;;;;;;;;;;;;;4930732;29;1307;-67
2021/03/27 15:03:43;;;;;;;;;;;;;;;;;;4938042;29;1397;-68
2021/03/27 15:06:24;;;;;;;;;;;;;;;;;;4939483;29;1958;-67
2021/03/27 15:09:03;;;;;;;;;;;;;;;;;;4938137;29;1420;-67
2021/03/27 15:11:34;;;;;;;;;;;;;;;;;;4938187;29;1434;-67
2021/03/27 15:14:17;;;;;;;;;;;;;;;;;;4937603;29;1297;-67
2021/03/27 15:16:56;;;;;;;;;;;;;;;;;;4938090;29;1224;-67
2021/03/27 15:19:28;;;;;;;;;;;;;;;;;;4938188;29;1236;-67
2021/03/27 15:22:12;;;;;;;;;;;;;;;;;;4937766;29;1446;-67
2021/03/27 15:27:44;;;;;;;;;;;;;;;;;;4937800;29;1906;-67
2021/03/27 15:30:17;;;;;;;;;;;;;;;;;;4939019;29;814;-67
2021/03/27 15:32:42;;;;;;;;;;;;;;;;;;4938942;29;1335;-67
2021/03/27 15:35:07;;;;;;;;;;;;;;;;;;4938580;29;952;-67
2021/03/27 15:37:32;;;;;;;;;;;;;;;;;;4938700;29;905;-67
2021/03/27 15:40:05;;;;;;;;;;;;;;;;;;4938786;29;889;-68
2021/03/27 15:42:36;;;;;;;;;;;;;;;;;;4938402;29;1386;-67
2021/03/27 15:45:01;;;;;;;;;;;;;;;;;;4938139;29;972;-67
2021/03/27 15:47:32;;;;;;;;;;;;;;;;;;4937214;29;1899;-67
2021/03/27 15:50:01;;;;;;;;;;;;;;;;;;4938589;29;830;-67
2021/03/27 15:52:26;;;;;;;;;;;;;;;;;;4938588;29;1335;-70
2021/03/27 15:55:16;;;;;;;;;;;;;;;;;;4938239;29;806;-69
2021/03/27 15:57:43;;;;;;;;;;;;;;;;;;4938386;29;869;-70
2021/03/27 16:00:14;;;;;;;;;;;;;;;;;;4937265;29;1225;-67
2021/03/27 16:02:42;;;;;;;;;;;;;;;;;;4938199;29;1347;-68
2021/03/27 16:05:08;;;;;;;;;;;;;;;;;;4938113;29;880;-66
2021/03/27 16:07:38;;;;;;;;;;;;;;;;;;4936778;29;1899;-66
2021/03/27 16:10:03;;;;;;;;;;;;;;;;;;4936809;29;1613;-67
2021/03/27 16:12:35;;;;;;;;;;;;;;;;;;4937909;29;1339;-67
2021/03/27 16:15:03;;;;;;;;;;;;;;;;;;4937986;29;924;-68
2021/03/27 16:17:28;;;;;;;;;;;;;;;;;;4936811;29;1305;-68
2021/03/27 16:20:04;;;;;;;;;;;;;;;;;;4938116;29;880;-68
2021/03/27 16:22:38;;;;;;;;;;;;;;;;;;4936865;29;1347;-67
2021/03/27 16:25:03;;;;;;;;;;;;;;;;;;4936400;29;1438;-68
2021/03/27 16:27:32;;;;;;;;;;;;;;;;;;4937929;29;1895;-67
2021/03/27 16:30:00;;;;;;;;;;;;;;;;;;4936755;29;1390;-69
2021/03/27 16:32:28;;;;;;;;;;;;;;;;;;4937704;29;1393;-68
2021/03/27 16:35:03;;;;;;;;;;;;;;;;;;4937491;29;881;-68
2021/03/27 16:37:31;;;;;;;;;;;;;;;;;;4937899;29;908;-68
2021/03/27 16:40:22;;;;;;;;;;;;;;;;;;4936614;29;1521;-67
2021/03/27 16:42:48;;;;;;;;;;;;;;;;;;4921747;29;1399;-67
2021/03/27 16:45:32;;;;;;;;;;;;;;;;;;4936815;29;885;-67
2021/03/27 16:48:06;;;;;;;;;;;;;;;;;;4936156;29;1236;-66
2021/03/27 16:50:37;;;;;;;;;;;;;;;;;;4937601;29;1275;-66
2021/03/27 16:53:03;;;;;;;;;;;;;;;;;;4937518;29;901;-67
2021/03/27 16:55:32;;;;;;;;;;;;;;;;;;4937343;29;854;-67
2021/03/27 16:57:58;;;;;;;;;;;;;;;;;;4937513;29;1297;-67
2021/03/27 17:00:23;;;;;;;;;;;;;;;;;;4936013;29;1317;-67
2021/03/27 17:02:48;;;;;;;;;;;;;;;;;;4936109;29;1410;-68
2021/03/27 17:05:20;;;;;;;;;;;;;;;;;;4936391;29;814;-67
2021/03/27 17:07:49;;;;;;;;;;;;;;;;;;4937324;29;2037;-68
2021/03/27 17:10:32;;;;;;;;;;;;;;;;;;4937616;29;973;-67
2021/03/27 17:13:02;;;;;;;;;;;;;;;;;;4937350;29;913;-67
2021/03/27 17:15:47;;;;;;;;;;;;;;;;;;4936972;29;838;-66
2021/03/27 17:18:14;;;;;;;;;;;;;;;;;;4933372;29;1424;-66
2021/03/27 17:20:42;;;;;;;;;;;;;;;;;;4936302;29;1450;-67
2021/03/27 17:23:08;;;;;;;;;;;;;;;;;;4935883;29;1541;-67
2021/03/27 17:25:52;;;;;;;;;;;;;;;;;;4936138;29;1911;-67
2021/03/27 17:28:29;;;;;;;;;;;;;;;;;;4937189;29;813;-72
2021/03/27 17:31:06;;;;;;;;;;;;;;;;;;4948427;29;1486;-72
2021/03/27 17:33:43;;;;;;;;;;;;;;;;;;4955037;28;1148;-71
2021/03/27 17:36:21;;;;;;;;;;;;;;;;;;4950387;28;1366;-71
2021/03/27 17:38:56;;;;;;;;;;;;;;;;;;4937058;29;1095;-70
2021/03/27 17:41:33;;;;;;;;;;;;;;;;;;4935908;29;1363;-70
2021/03/27 17:43:58;;;;;;;;;;;;;;;;;;4951032;29;1283;-69
2021/03/27 17:46:39;;;;;;;;;;;;;;;;;;4956017;28;1906;-69
2021/03/27 17:49:18;;;;;;;;;;;;;;;;;;4956202;28;891;-70
2021/03/27 17:51:52;;;;;;;;;;;;;;;;;;4956251;28;1385;-69
2021/03/27 17:54:32;;;;;;;;;;;;;;;;;;4955850;28;904;-70
2021/03/27 17:57:01;;;;;;;;;;;;;;;;;;4954949;28;1232;-69
2021/03/27 17:59:40;;;;;;;;;;;;;;;;;;4956129;28;920;-70
2021/03/27 18:02:17;;;;;;;;;;;;;;;;;;4956157;28;1386;-69
2021/03/27 18:04:45;;;;;;;;;;;;;;;;;;4955804;28;861;-69
2021/03/27 18:07:16;;;;;;;;;;;;;;;;;;4957542;28;1960;-70
2021/03/27 18:09:49;;;;;;;;;;;;;;;;;;4959111;28;881;-71
2021/03/27 18:12:23;;;;;;;;;;;;;;;;;;4959039;28;1394;-69
2021/03/27 18:14:55;;;;;;;;;;;;;;;;;;4958608;28;843;-69
2021/03/27 18:17:38;;;;;;;;;;;;;;;;;;4958784;28;781;-70
2021/03/27 18:20:24;;;;;;;;;;;;;;;;;;4958012;28;1616;-70
2021/03/27 18:22:53;;;;;;;;;;;;;;;;;;4958515;29;1381;-70
2021/03/27 18:25:24;;;;;;;;;;;;;;;;;;4958450;28;807;-70
2021/03/27 18:27:56;;;;;;;;;;;;;;;;;;4957889;28;881;-71
2021/03/27 18:30:28;;;;;;;;;;;;;;;;;;4957744;28;1437;-70
2021/03/27 18:32:54;;;;;;;;;;;;;;;;;;4957368;28;1151;-70
2021/03/27 18:35:25;;;;;;;;;;;;;;;;;;4958272;28;964;-70
2021/03/27 18:37:53;;;;;;;;;;;;;;;;;;4958565;28;896;-70
2021/03/27 18:40:25;;;;;;;;;;;;;;;;;;4957432;28;1200;-70
2021/03/27 18:42:58;;;;;;;;;;;;;;;;;;4957260;28;1430;-70
2021/03/27 18:45:26;;;;;;;;;;;;;;;;;;4956791;28;1019;-70
2021/03/27 18:47:57;;;;;;;;;;;;;;;;;;4957175;29;802;-69
2021/03/27 18:50:26;;;;;;;;;;;;;;;;;;4957078;29;1372;-69
2021/03/27 18:52:54;;;;;;;;;;;;;;;;;;4957172;28;813;-70
2021/03/27 18:55:22;;;;;;;;;;;;;;;;;;4958120;28;912;-70
2021/03/27 18:57:52;;;;;;;;;;;;;;;;;;4957019;28;1326;-70
2021/03/27 19:00:23;;;;;;;;;;;;;;;;;;4956988;28;1394;-69
2021/03/27 19:03:00;;;;;;;;;;;;;;;;;;4957886;28;1319;-69
2021/03/27 19:05:29;;;;;;;;;;;;;;;;;;4956061;29;1965;-69
2021/03/27 19:08:02;;;;;;;;;;;;;;;;;;4956810;28;1277;-70
2021/03/27 19:10:30;;;;;;;;;;;;;;;;;;4958046;28;1319;-70
2021/03/27 19:13:05;;;;;;;;;;;;;;;;;;4957939;28;990;-69
2021/03/27 19:15:33;;;;;;;;;;;;;;;;;;4957890;28;1058;-70
2021/03/27 19:18:00;;;;;;;;;;;;;;;;;;4956264;28;1313;-70
2021/03/27 19:20:27;;;;;;;;;;;;;;;;;;4957955;28;960;-70
2021/03/27 19:22:55;;;;;;;;;;;;;;;;;;4957768;28;830;-70
2021/03/27 19:25:26;;;;;;;;;;;;;;;;;;4957592;28;813;-70
2021/03/27 19:28:04;;;;;;;;;;;;;;;;;;4957582;28;881;-70
2021/03/27 19:30:50;;;;;;;;;;;;;;;;;;4956447;29;1678;-70
2021/03/27 19:33:26;;;;;;;;;;;;;;;;;;4957364;28;759;-70
2021/03/27 19:35:55;;;;;;;;;;;;;;;;;;4957671;28;833;-70
2021/03/27 19:38:26;;;;;;;;;;;;;;;;;;4957536;28;905;-70
2021/03/27 19:40:57;;;;;;;;;;;;;;;;;;4957149;28;1363;-70
2021/03/27 19:43:25;;;;;;;;;;;;;;;;;;4957088;28;888;-70
2021/03/27 19:45:54;;;;;;;;;;;;;;;;;;4955920;28;1961;-69
2021/03/27 19:48:38;;;;;;;;;;;;;;;;;;4957385;28;841;-70
2021/03/27 19:51:06;;;;;;;;;;;;;;;;;;4955891;28;1393;-70
2021/03/27 19:53:35;;;;;;;;;;;;;;;;;;4955734;28;1223;-70
2021/03/27 19:56:05;;;;;;;;;;;;;;;;;;4955706;28;1406;-69
2021/03/27 19:58:41;;;;;;;;;;;;;;;;;;4957163;28;912;-70
2021/03/27 20:01:27;;;;;;;;;;;;;;;;;;4955766;28;1356;-71
2021/03/27 20:03:57;;;;;;;;;;;;;;;;;;4955997;28;1278;-70
2021/03/27 20:06:25;;;;;;;;;;;;;;;;;;4956913;29;1954;-70
2021/03/27 20:09:13;;;;;;;;;;;;;;;;;;4956772;28;832;-70
2021/03/27 20:11:45;;;;;;;;;;;;;;;;;;4956686;29;1298;-70
2021/03/27 20:14:49;;;;;;;;;;;;;;;;;;4951164;28;1437;-70
2021/03/27 20:17:25;;;;;;;;;;;;;;;;;;4934907;29;1222;-70
2021/03/27 20:20:00;;;;;;;;;;;;;;;;;;4933952;29;1190;-69
2021/03/27 20:22:31;;;;;;;;;;;;;;;;;;4947986;28;1342;-69
2021/03/27 20:24:56;;;;;;;;;;;;;;;;;;4956384;29;844;-70
2021/03/27 20:28:00;;;;;;;;;;;;;;;;;;4956273;28;1886;-70
2021/03/27 20:30:28;;;;;;;;;;;;;;;;;;4918518;29;1247;-70
2021/03/27 20:32:56;;;;;;;;;;;;;;;;;;4935051;29;865;-71
2021/03/27 20:35:24;;;;;;;;;;;;;;;;;;4945366;28;949;-71
2021/03/27 20:38:08;;;;;;;;;;;;;;;;;;4956143;29;818;-70
2021/03/27 20:40:36;;;;;;;;;;;;;;;;;;4948608;29;1404;-70
2021/03/27 20:43:01;;;;;;;;;;;;;;;;;;4955832;28;1216;-69
2021/03/27 20:45:35;;;;;;;;;;;;;;;;;;4954573;28;1261;-70
2021/03/27 20:48:19;;;;;;;;;;;;;;;;;;4955734;28;791;-70
2021/03/27 20:50:53;;;;;;;;;;;;;;;;;;4956036;28;1429;-70
2021/03/27 20:53:28;;;;;;;;;;;;;;;;;;4954458;28;1255;-69
2021/03/27 20:56:18;;;;;;;;;;;;;;;;;;4956057;28;831;-70
2021/03/27 20:58:48;;;;;;;;;;;;;;;;;;4954967;28;1355;-70
2021/03/27 21:01:24;;;;;;;;;;;;;;;;;;4955799;28;1299;-69
2021/03/27 21:04:15;;;;;;;;;;;;;;;;;;4955897;28;981;-70
2021/03/27 21:06:52;;;;;;;;;;;;;;;;;;4954482;29;1918;-70
2021/03/27 21:09:24;;;;;;;;;;;;;;;;;;4955984;28;965;-70
2021/03/27 21:11:51;;;;;;;;;;;;;;;;;;4955751;28;1389;-69
2021/03/27 21:14:28;;;;;;;;;;;;;;;;;;4955773;28;830;-70
2021/03/27 21:16:59;;;;;;;;;;;;;;;;;;4955722;28;1000;-71
2021/03/27 21:19:43;;;;;;;;;;;;;;;;;;4954615;29;1257;-71
2021/03/27 21:22:27;;;;;;;;;;;;;;;;;;4954232;28;1442;-72
2021/03/27 21:24:54;;;;;;;;;;;;;;;;;;4955559;28;842;-70
2021/03/27 21:27:39;;;;;;;;;;;;;;;;;;4955757;28;1891;-71
2021/03/27 21:30:07;;;;;;;;;;;;;;;;;;4954487;28;1672;-71
2021/03/27 21:32:35;;;;;;;;;;;;;;;;;;4955471;28;1394;-70
2021/03/27 21:35:06;;;;;;;;;;;;;;;;;;4955448;28;798;-70
2021/03/27 21:37:50;;;;;;;;;;;;;;;;;;4954466;29;1189;-71
2021/03/27 21:40:19;;;;;;;;;;;;;;;;;;4954319;28;1192;-71
2021/03/27 21:43:10;;;;;;;;;;;;;;;;;;4957123;28;1410;-71
2021/03/27 21:45:37;;;;;;;;;;;;;;;;;;4959438;28;1961;-71
2021/03/27 21:48:23;;;;;;;;;;;;;;;;;;4959122;28;888;-71
2021/03/27 21:51:07;;;;;;;;;;;;;;;;;;4954859;29;1405;-71
2021/03/27 21:53:50;;;;;;;;;;;;;;;;;;4959108;28;810;-71
2021/03/27 21:56:21;;;;;;;;;;;;;;;;;;4959507;28;955;-71
2021/03/27 21:58:49;;;;;;;;;;;;;;;;;;4959130;28;872;-71
2021/03/27 22:01:30;;;;;;;;;;;;;;;;;;4958982;28;1319;-70
2021/03/27 22:03:59;;;;;;;;;;;;;;;;;;4958975;28;802;-71
2021/03/27 22:06:30;;;;;;;;;;;;;;;;;;4959105;28;1899;-71
2021/03/27 22:09:14;;;;;;;;;;;;;;;;;;4957488;28;1200;-71
2021/03/27 22:11:45;;;;;;;;;;;;;;;;;;4958187;29;1442;-71
2021/03/27 22:14:13;;;;;;;;;;;;;;;;;;4958861;28;947;-71
2021/03/27 22:16:44;;;;;;;;;;;;;;;;;;4958731;28;961;-71
2021/03/27 22:19:15;;;;;;;;;;;;;;;;;;4957422;28;1219;-72
2021/03/27 22:21:42;;;;;;;;;;;;;;;;;;4957369;28;1350;-71
2021/03/27 22:24:17;;;;;;;;;;;;;;;;;;4957354;29;865;-71
2021/03/27 22:26:52;;;;;;;;;;;;;;;;;;4959003;28;1894;-71
2021/03/27 22:29:31;;;;;;;;;;;;;;;;;;4958750;28;806;-71
2021/03/27 22:31:58;;;;;;;;;;;;;;;;;;4958493;28;1280;-71
2021/03/27 22:34:26;;;;;;;;;;;;;;;;;;4958476;28;803;-71
2021/03/27 22:37:03;;;;;;;;;;;;;;;;;;4957363;28;810;-71
2021/03/27 22:39:37;;;;;;;;;;;;;;;;;;4957068;28;1189;-71
2021/03/27 22:42:20;;;;;;;;;;;;;;;;;;4958073;28;1291;-71
2021/03/27 22:44:51;;;;;;;;;;;;;;;;;;4958052;28;810;-71
2021/03/27 22:47:16;;;;;;;;;;;;;;;;;;4956978;28;1890;-71
2021/03/27 22:49:44;;;;;;;;;;;;;;;;;;4958424;28;814;-70
2021/03/27 22:52:32;;;;;;;;;;;;;;;;;;4957692;28;1524;-71
2021/03/27 22:54:59;;;;;;;;;;;;;;;;;;4956657;28;1274;-71
2021/03/27 22:57:31;;;;;;;;;;;;;;;;;;4958168;28;846;-71
2021/03/27 22:59:59;;;;;;;;;;;;;;;;;;4956624;28;1158;-70
2021/03/27 23:02:29;;;;;;;;;;;;;;;;;;4956728;28;1450;-71
2021/03/27 23:05:04;;;;;;;;;;;;;;;;;;4957677;28;914;-70
2021/03/27 23:07:41;;;;;;;;;;;;;;;;;;4957941;28;1899;-71
2021/03/27 23:10:18;;;;;;;;;;;;;;;;;;4956525;28;1304;-70
2021/03/27 23:12:45;;;;;;;;;;;;;;;;;;4957677;28;1483;-71
2021/03/27 23:15:11;;;;;;;;;;;;;;;;;;4957528;28;917;-71
2021/03/27 23:17:37;;;;;;;;;;;;;;;;;;4957574;28;810;-71
2021/03/27 23:20:21;;;;;;;;;;;;;;;;;;4957920;28;833;-72
2021/03/27 23:22:50;;;;;;;;;;;;;;;;;;4957510;28;1316;-70
2021/03/27 23:25:20;;;;;;;;;;;;;;;;;;4956088;28;1517;-71
2021/03/27 23:27:49;;;;;;;;;;;;;;;;;;4956314;28;1907;-71
2021/03/27 23:30:18;;;;;;;;;;;;;;;;;;4956318;28;1317;-72
2021/03/27 23:32:43;;;;;;;;;;;;;;;;;;4957534;28;1339;-71
2021/03/27 23:35:20;;;;;;;;;;;;;;;;;;4957593;28;867;-71
2021/03/27 23:37:49;;;;;;;;;;;;;;;;;;4956243;28;1212;-71
2021/03/27 23:40:14;;;;;;;;;;;;;;;;;;4956160;28;822;-70
2021/03/27 23:42:52;;;;;;;;;;;;;;;;;;4955963;28;1390;-70
2021/03/27 23:45:36;;;;;;;;;;;;;;;;;;4957015;28;829;-70
2021/03/27 23:48:21;;;;;;;;;;;;;;;;;;4956127;29;1990;-71
2021/03/27 23:51:13;;;;;;;;;;;;;;;;;;4955217;29;1673;-70
2021/03/27 23:54:02;;;;;;;;;;;;;;;;;;4940907;29;1259;-72
2021/03/27 23:56:46;;;;;;;;;;;;;;;;;;4954141;29;1370;-72
2021/03/27 23:59:21;;;;;;;;;;;;;;;;;;4955909;28;1447;-71
